sensor_id;sensor_type;location;lat;lon;timestamp;P1;durP1;ratioP1;P2;durP2;ratioP2
20004;SDS011;69160;45.498;-73.582;2023-06-10T00:02:08;1.73;;;1.10;;
20004;SDS011;69160;45.498;-73.582;2023-06-10T00:04:34;2.37;;;1.53;;
20004;SDS011;69160;45.498;-73.582;2023-06-10T00:07:02;1.50;;;1.20;;
20004;SDS011;69160;45.498;-73.582;2023-06-10T00:09:36;2.07;;;1.30;;
20004;SDS011;69160;45.498;-73.582;2023-06-10T00:12:03;3.27;;;1.60;;
20004;SDS011;69160;45.498;-73.582;2023-06-10T00:14:32;2.07;;;1.40;;
20004;SDS011;69160;45.498;-73.582;2023-06-10T00:17:02;1.20;;;1.10;;
20004;SDS011;69160;45.498;-73.582;2023-06-10T00:19:29;1.30;;;1.20;;
20004;SDS011;69160;45.498;-73.582;2023-06-10T00:21:56;1.63;;;1.27;;
20004;SDS011;69160;45.498;-73.582;2023-06-10T00:24:22;2.23;;;1.17;;
20004;SDS011;69160;45.498;-73.582;2023-06-10T00:26:48;1.80;;;1.30;;
20004;SDS011;69160;45.498;-73.582;2023-06-10T00:29:15;1.37;;;1.27;;
20004;SDS011;69160;45.498;-73.582;2023-06-10T00:31:41;1.13;;;1.03;;
20004;SDS011;69160;45.498;-73.582;2023-06-10T00:34:09;1.97;;;1.20;;
20004;SDS011;69160;45.498;-73.582;2023-06-10T00:36:35;2.00;;;1.33;;
20004;SDS011;69160;45.498;-73.582;2023-06-10T00:39:01;1.67;;;1.37;;
20004;SDS011;69160;45.498;-73.582;2023-06-10T00:41:29;1.47;;;1.37;;
20004;SDS011;69160;45.498;-73.582;2023-06-10T00:43:55;2.60;;;1.47;;
20004;SDS011;69160;45.498;-73.582;2023-06-10T00:46:22;1.27;;;1.17;;
20004;SDS011;69160;45.498;-73.582;2023-06-10T00:48:50;1.87;;;1.30;;
20004;SDS011;69160;45.498;-73.582;2023-06-10T00:51:17;1.93;;;1.40;;
20004;SDS011;69160;45.498;-73.582;2023-06-10T00:53:44;2.43;;;1.50;;
20004;SDS011;69160;45.498;-73.582;2023-06-10T00:56:11;2.00;;;1.50;;
20004;SDS011;69160;45.498;-73.582;2023-06-10T00:58:38;2.07;;;1.50;;
20004;SDS011;69160;45.498;-73.582;2023-06-10T01:01:05;6.10;;;1.63;;
20004;SDS011;69160;45.498;-73.582;2023-06-10T01:03:31;3.00;;;1.43;;
20004;SDS011;69160;45.498;-73.582;2023-06-10T01:06:10;7.43;;;1.77;;
20004;SDS011;69160;45.498;-73.582;2023-06-10T01:09:06;6.87;;;2.03;;
20004;SDS011;69160;45.498;-73.582;2023-06-10T01:11:48;2.70;;;1.40;;
20004;SDS011;69160;45.498;-73.582;2023-06-10T01:14:37;4.57;;;1.33;;
20004;SDS011;69160;45.498;-73.582;2023-06-10T01:17:10;3.90;;;1.50;;
20004;SDS011;69160;45.498;-73.582;2023-06-10T01:19:36;4.30;;;1.60;;
20004;SDS011;69160;45.498;-73.582;2023-06-10T01:22:03;2.40;;;1.20;;
20004;SDS011;69160;45.498;-73.582;2023-06-10T01:24:30;2.67;;;1.67;;
20004;SDS011;69160;45.498;-73.582;2023-06-10T01:27:01;2.30;;;1.30;;
20004;SDS011;69160;45.498;-73.582;2023-06-10T01:29:41;1.73;;;1.60;;
20004;SDS011;69160;45.498;-73.582;2023-06-10T01:32:22;3.33;;;1.67;;
20004;SDS011;69160;45.498;-73.582;2023-06-10T01:34:55;3.83;;;1.60;;
20004;SDS011;69160;45.498;-73.582;2023-06-10T01:37:22;4.63;;;1.40;;
20004;SDS011;69160;45.498;-73.582;2023-06-10T01:39:50;2.57;;;1.50;;
20004;SDS011;69160;45.498;-73.582;2023-06-10T01:42:17;2.30;;;1.27;;
20004;SDS011;69160;45.498;-73.582;2023-06-10T01:44:43;1.80;;;1.23;;
20004;SDS011;69160;45.498;-73.582;2023-06-10T01:47:10;2.30;;;1.33;;
20004;SDS011;69160;45.498;-73.582;2023-06-10T01:49:36;2.90;;;1.50;;
20004;SDS011;69160;45.498;-73.582;2023-06-10T01:52:02;2.93;;;1.73;;
20004;SDS011;69160;45.498;-73.582;2023-06-10T01:54:29;1.80;;;1.40;;
20004;SDS011;69160;45.498;-73.582;2023-06-10T01:56:55;2.97;;;1.37;;
20004;SDS011;69160;45.498;-73.582;2023-06-10T01:59:21;4.10;;;1.57;;
20004;SDS011;69160;45.498;-73.582;2023-06-10T02:01:47;2.60;;;1.30;;
20004;SDS011;69160;45.498;-73.582;2023-06-10T02:04:13;1.50;;;1.17;;
20004;SDS011;69160;45.498;-73.582;2023-06-10T02:06:39;2.20;;;1.43;;
20004;SDS011;69160;45.498;-73.582;2023-06-10T02:09:06;2.17;;;1.40;;
20004;SDS011;69160;45.498;-73.582;2023-06-10T02:11:32;3.83;;;1.43;;
20004;SDS011;69160;45.498;-73.582;2023-06-10T02:13:59;2.50;;;1.40;;
20004;SDS011;69160;45.498;-73.582;2023-06-10T02:16:25;1.90;;;1.50;;
20004;SDS011;69160;45.498;-73.582;2023-06-10T02:18:51;2.83;;;1.40;;
20004;SDS011;69160;45.498;-73.582;2023-06-10T02:21:18;3.50;;;1.50;;
20004;SDS011;69160;45.498;-73.582;2023-06-10T02:23:44;6.23;;;1.70;;
20004;SDS011;69160;45.498;-73.582;2023-06-10T02:26:10;2.60;;;1.50;;
20004;SDS011;69160;45.498;-73.582;2023-06-10T02:28:36;2.00;;;1.40;;
20004;SDS011;69160;45.498;-73.582;2023-06-10T02:31:02;2.13;;;1.20;;
20004;SDS011;69160;45.498;-73.582;2023-06-10T02:33:28;1.87;;;1.50;;
20004;SDS011;69160;45.498;-73.582;2023-06-10T02:35:55;2.93;;;1.50;;
20004;SDS011;69160;45.498;-73.582;2023-06-10T02:38:21;1.70;;;1.43;;
20004;SDS011;69160;45.498;-73.582;2023-06-10T02:40:47;2.83;;;1.43;;
20004;SDS011;69160;45.498;-73.582;2023-06-10T02:43:13;2.60;;;1.20;;
20004;SDS011;69160;45.498;-73.582;2023-06-10T02:45:40;3.57;;;1.50;;
20004;SDS011;69160;45.498;-73.582;2023-06-10T02:48:06;3.10;;;1.47;;
20004;SDS011;69160;45.498;-73.582;2023-06-10T02:50:32;1.60;;;1.50;;
20004;SDS011;69160;45.498;-73.582;2023-06-10T02:52:58;1.63;;;1.33;;
20004;SDS011;69160;45.498;-73.582;2023-06-10T02:55:24;3.10;;;1.90;;
20004;SDS011;69160;45.498;-73.582;2023-06-10T02:57:51;3.70;;;1.47;;
20004;SDS011;69160;45.498;-73.582;2023-06-10T03:00:19;2.80;;;1.30;;
20004;SDS011;69160;45.498;-73.582;2023-06-10T03:02:46;5.47;;;1.93;;
20004;SDS011;69160;45.498;-73.582;2023-06-10T03:05:13;1.90;;;1.33;;
20004;SDS011;69160;45.498;-73.582;2023-06-10T03:07:39;2.10;;;1.33;;
20004;SDS011;69160;45.498;-73.582;2023-06-10T03:10:06;2.63;;;1.57;;
20004;SDS011;69160;45.498;-73.582;2023-06-10T03:12:33;2.87;;;1.30;;
20004;SDS011;69160;45.498;-73.582;2023-06-10T03:14:59;2.20;;;1.43;;
20004;SDS011;69160;45.498;-73.582;2023-06-10T03:17:25;1.53;;;1.30;;
20004;SDS011;69160;45.498;-73.582;2023-06-10T03:19:51;1.80;;;1.27;;
20004;SDS011;69160;45.498;-73.582;2023-06-10T03:22:17;3.37;;;1.40;;
20004;SDS011;69160;45.498;-73.582;2023-06-10T03:24:43;1.50;;;1.17;;
20004;SDS011;69160;45.498;-73.582;2023-06-10T03:27:12;2.10;;;1.30;;
20004;SDS011;69160;45.498;-73.582;2023-06-10T03:29:38;4.33;;;1.70;;
20004;SDS011;69160;45.498;-73.582;2023-06-10T03:32:05;2.80;;;1.50;;
20004;SDS011;69160;45.498;-73.582;2023-06-10T03:34:31;2.47;;;1.20;;
20004;SDS011;69160;45.498;-73.582;2023-06-10T03:36:58;2.80;;;1.73;;
20004;SDS011;69160;45.498;-73.582;2023-06-10T03:39:25;3.60;;;1.40;;
20004;SDS011;69160;45.498;-73.582;2023-06-10T03:41:54;1.80;;;1.20;;
20004;SDS011;69160;45.498;-73.582;2023-06-10T03:44:22;1.80;;;1.30;;
20004;SDS011;69160;45.498;-73.582;2023-06-10T03:46:49;1.83;;;1.20;;
20004;SDS011;69160;45.498;-73.582;2023-06-10T03:49:15;1.57;;;1.30;;
20004;SDS011;69160;45.498;-73.582;2023-06-10T03:51:42;1.77;;;1.50;;
20004;SDS011;69160;45.498;-73.582;2023-06-10T03:54:08;2.60;;;1.53;;
20004;SDS011;69160;45.498;-73.582;2023-06-10T03:56:35;1.40;;;1.10;;
20004;SDS011;69160;45.498;-73.582;2023-06-10T03:59:01;3.43;;;1.70;;
20004;SDS011;69160;45.498;-73.582;2023-06-10T04:01:27;2.17;;;1.47;;
20004;SDS011;69160;45.498;-73.582;2023-06-10T04:03:54;2.30;;;1.40;;
20004;SDS011;69160;45.498;-73.582;2023-06-10T04:06:20;1.40;;;1.20;;
20004;SDS011;69160;45.498;-73.582;2023-06-10T04:08:48;3.33;;;1.33;;
20004;SDS011;69160;45.498;-73.582;2023-06-10T04:11:14;3.00;;;1.20;;
20004;SDS011;69160;45.498;-73.582;2023-06-10T04:13:40;1.67;;;1.10;;
20004;SDS011;69160;45.498;-73.582;2023-06-10T04:16:06;2.53;;;1.37;;
20004;SDS011;69160;45.498;-73.582;2023-06-10T04:18:32;1.70;;;1.30;;
20004;SDS011;69160;45.498;-73.582;2023-06-10T04:20:58;4.07;;;1.20;;
20004;SDS011;69160;45.498;-73.582;2023-06-10T04:23:24;1.57;;;1.30;;
20004;SDS011;69160;45.498;-73.582;2023-06-10T04:25:51;1.83;;;1.20;;
20004;SDS011;69160;45.498;-73.582;2023-06-10T04:28:17;1.37;;;1.13;;
20004;SDS011;69160;45.498;-73.582;2023-06-10T04:30:43;1.33;;;1.10;;
20004;SDS011;69160;45.498;-73.582;2023-06-10T04:33:11;1.40;;;1.13;;
20004;SDS011;69160;45.498;-73.582;2023-06-10T04:35:37;1.70;;;1.37;;
20004;SDS011;69160;45.498;-73.582;2023-06-10T04:38:03;1.90;;;1.27;;
20004;SDS011;69160;45.498;-73.582;2023-06-10T04:40:29;1.70;;;1.37;;
20004;SDS011;69160;45.498;-73.582;2023-06-10T04:42:55;2.10;;;1.00;;
20004;SDS011;69160;45.498;-73.582;2023-06-10T04:45:21;2.27;;;1.10;;
20004;SDS011;69160;45.498;-73.582;2023-06-10T04:47:47;1.40;;;1.13;;
20004;SDS011;69160;45.498;-73.582;2023-06-10T04:50:14;1.73;;;1.23;;
20004;SDS011;69160;45.498;-73.582;2023-06-10T04:52:41;1.37;;;1.20;;
20004;SDS011;69160;45.498;-73.582;2023-06-10T04:55:07;1.20;;;0.97;;
20004;SDS011;69160;45.498;-73.582;2023-06-10T04:57:34;1.93;;;1.10;;
20004;SDS011;69160;45.498;-73.582;2023-06-10T05:00:00;2.13;;;1.17;;
20004;SDS011;69160;45.498;-73.582;2023-06-10T05:02:26;1.67;;;1.10;;
20004;SDS011;69160;45.498;-73.582;2023-06-10T05:04:52;2.30;;;1.43;;
20004;SDS011;69160;45.498;-73.582;2023-06-10T05:07:20;2.93;;;1.40;;
20004;SDS011;69160;45.498;-73.582;2023-06-10T05:09:46;1.83;;;1.10;;
20004;SDS011;69160;45.498;-73.582;2023-06-10T05:12:12;1.60;;;1.10;;
20004;SDS011;69160;45.498;-73.582;2023-06-10T05:14:38;1.53;;;1.10;;
20004;SDS011;69160;45.498;-73.582;2023-06-10T05:17:04;1.80;;;1.10;;
20004;SDS011;69160;45.498;-73.582;2023-06-10T05:19:31;1.77;;;1.33;;
20004;SDS011;69160;45.498;-73.582;2023-06-10T05:21:57;1.40;;;1.10;;
20004;SDS011;69160;45.498;-73.582;2023-06-10T05:24:24;1.37;;;1.07;;
20004;SDS011;69160;45.498;-73.582;2023-06-10T05:26:50;1.70;;;1.40;;
20004;SDS011;69160;45.498;-73.582;2023-06-10T05:29:16;1.47;;;1.13;;
20004;SDS011;69160;45.498;-73.582;2023-06-10T05:31:42;1.40;;;1.17;;
20004;SDS011;69160;45.498;-73.582;2023-06-10T05:34:08;1.20;;;0.83;;
20004;SDS011;69160;45.498;-73.582;2023-06-10T05:36:34;1.43;;;1.07;;
20004;SDS011;69160;45.498;-73.582;2023-06-10T05:39:00;1.20;;;0.97;;
20004;SDS011;69160;45.498;-73.582;2023-06-10T05:41:26;0.90;;;0.80;;
20004;SDS011;69160;45.498;-73.582;2023-06-10T05:43:53;2.17;;;1.13;;
20004;SDS011;69160;45.498;-73.582;2023-06-10T05:46:19;1.10;;;0.90;;
20004;SDS011;69160;45.498;-73.582;2023-06-10T05:48:46;0.90;;;0.70;;
20004;SDS011;69160;45.498;-73.582;2023-06-10T05:51:12;1.77;;;1.10;;
20004;SDS011;69160;45.498;-73.582;2023-06-10T05:53:38;1.93;;;1.07;;
20004;SDS011;69160;45.498;-73.582;2023-06-10T05:56:04;1.40;;;1.10;;
20004;SDS011;69160;45.498;-73.582;2023-06-10T05:58:31;1.93;;;1.03;;
20004;SDS011;69160;45.498;-73.582;2023-06-10T06:00:57;1.43;;;1.33;;
20004;SDS011;69160;45.498;-73.582;2023-06-10T06:03:23;1.60;;;1.10;;
20004;SDS011;69160;45.498;-73.582;2023-06-10T06:05:49;1.13;;;1.03;;
20004;SDS011;69160;45.498;-73.582;2023-06-10T06:08:15;1.60;;;1.20;;
20004;SDS011;69160;45.498;-73.582;2023-06-10T06:10:44;2.43;;;1.20;;
20004;SDS011;69160;45.498;-73.582;2023-06-10T06:13:12;1.30;;;1.10;;
20004;SDS011;69160;45.498;-73.582;2023-06-10T06:15:39;1.67;;;1.20;;
20004;SDS011;69160;45.498;-73.582;2023-06-10T06:18:05;1.30;;;1.03;;
20004;SDS011;69160;45.498;-73.582;2023-06-10T06:20:31;1.23;;;1.07;;
20004;SDS011;69160;45.498;-73.582;2023-06-10T06:22:57;1.53;;;1.27;;
20004;SDS011;69160;45.498;-73.582;2023-06-10T06:25:23;1.63;;;1.00;;
20004;SDS011;69160;45.498;-73.582;2023-06-10T06:27:49;1.80;;;1.00;;
20004;SDS011;69160;45.498;-73.582;2023-06-10T06:30:15;1.77;;;1.20;;
20004;SDS011;69160;45.498;-73.582;2023-06-10T06:32:42;1.73;;;1.07;;
20004;SDS011;69160;45.498;-73.582;2023-06-10T06:35:08;1.07;;;0.97;;
20004;SDS011;69160;45.498;-73.582;2023-06-10T06:37:34;1.57;;;1.20;;
20004;SDS011;69160;45.498;-73.582;2023-06-10T06:40:01;1.20;;;1.10;;
20004;SDS011;69160;45.498;-73.582;2023-06-10T06:42:27;1.57;;;1.30;;
20004;SDS011;69160;45.498;-73.582;2023-06-10T06:44:53;1.43;;;1.00;;
20004;SDS011;69160;45.498;-73.582;2023-06-10T06:47:19;1.37;;;1.13;;
20004;SDS011;69160;45.498;-73.582;2023-06-10T06:49:46;1.30;;;0.93;;
20004;SDS011;69160;45.498;-73.582;2023-06-10T06:52:13;1.27;;;1.03;;
20004;SDS011;69160;45.498;-73.582;2023-06-10T06:54:40;3.90;;;1.27;;
20004;SDS011;69160;45.498;-73.582;2023-06-10T06:57:06;1.30;;;1.00;;
20004;SDS011;69160;45.498;-73.582;2023-06-10T06:59:33;1.50;;;0.93;;
20004;SDS011;69160;45.498;-73.582;2023-06-10T07:01:59;1.13;;;0.90;;
20004;SDS011;69160;45.498;-73.582;2023-06-10T07:04:25;1.20;;;1.10;;
20004;SDS011;69160;45.498;-73.582;2023-06-10T07:06:51;0.90;;;0.90;;
20004;SDS011;69160;45.498;-73.582;2023-06-10T07:09:17;1.30;;;1.10;;
20004;SDS011;69160;45.498;-73.582;2023-06-10T07:11:43;1.20;;;1.10;;
20004;SDS011;69160;45.498;-73.582;2023-06-10T07:14:10;1.40;;;1.17;;
20004;SDS011;69160;45.498;-73.582;2023-06-10T07:16:36;2.63;;;1.07;;
20004;SDS011;69160;45.498;-73.582;2023-06-10T07:19:02;1.77;;;1.10;;
20004;SDS011;69160;45.498;-73.582;2023-06-10T07:21:29;1.57;;;1.10;;
20004;SDS011;69160;45.498;-73.582;2023-06-10T07:23:56;1.20;;;1.10;;
20004;SDS011;69160;45.498;-73.582;2023-06-10T07:26:22;1.23;;;1.13;;
20004;SDS011;69160;45.498;-73.582;2023-06-10T07:28:48;2.43;;;1.17;;
20004;SDS011;69160;45.498;-73.582;2023-06-10T07:31:14;3.63;;;1.20;;
20004;SDS011;69160;45.498;-73.582;2023-06-10T07:33:40;1.23;;;1.00;;
20004;SDS011;69160;45.498;-73.582;2023-06-10T07:36:08;1.20;;;1.10;;
20004;SDS011;69160;45.498;-73.582;2023-06-10T07:38:35;1.67;;;1.23;;
20004;SDS011;69160;45.498;-73.582;2023-06-10T07:41:01;1.20;;;1.00;;
20004;SDS011;69160;45.498;-73.582;2023-06-10T07:43:28;1.13;;;1.03;;
20004;SDS011;69160;45.498;-73.582;2023-06-10T07:45:54;1.47;;;1.23;;
20004;SDS011;69160;45.498;-73.582;2023-06-10T07:48:20;1.63;;;1.30;;
20004;SDS011;69160;45.498;-73.582;2023-06-10T07:50:46;1.30;;;1.20;;
20004;SDS011;69160;45.498;-73.582;2023-06-10T07:53:12;2.60;;;1.43;;
20004;SDS011;69160;45.498;-73.582;2023-06-10T07:55:38;2.57;;;1.50;;
20004;SDS011;69160;45.498;-73.582;2023-06-10T07:58:04;1.60;;;1.20;;
20004;SDS011;69160;45.498;-73.582;2023-06-10T08:00:30;1.73;;;1.20;;
20004;SDS011;69160;45.498;-73.582;2023-06-10T08:02:56;1.27;;;1.17;;
20004;SDS011;69160;45.498;-73.582;2023-06-10T08:05:23;2.30;;;1.57;;
20004;SDS011;69160;45.498;-73.582;2023-06-10T08:07:49;2.73;;;1.23;;
20004;SDS011;69160;45.498;-73.582;2023-06-10T08:10:15;2.50;;;1.30;;
20004;SDS011;69160;45.498;-73.582;2023-06-10T08:12:41;2.33;;;1.60;;
20004;SDS011;69160;45.498;-73.582;2023-06-10T08:15:07;2.63;;;1.60;;
20004;SDS011;69160;45.498;-73.582;2023-06-10T08:17:34;1.53;;;1.23;;
20004;SDS011;69160;45.498;-73.582;2023-06-10T08:20:00;1.20;;;1.10;;
20004;SDS011;69160;45.498;-73.582;2023-06-10T08:22:26;1.70;;;1.17;;
20004;SDS011;69160;45.498;-73.582;2023-06-10T08:24:54;1.60;;;1.30;;
20004;SDS011;69160;45.498;-73.582;2023-06-10T08:27:21;1.77;;;1.30;;
20004;SDS011;69160;45.498;-73.582;2023-06-10T08:29:47;1.47;;;1.10;;
20004;SDS011;69160;45.498;-73.582;2023-06-10T08:32:13;1.50;;;1.37;;
20004;SDS011;69160;45.498;-73.582;2023-06-10T08:34:39;2.30;;;1.17;;
20004;SDS011;69160;45.498;-73.582;2023-06-10T08:37:06;2.13;;;1.40;;
20004;SDS011;69160;45.498;-73.582;2023-06-10T08:39:32;1.40;;;1.30;;
20004;SDS011;69160;45.498;-73.582;2023-06-10T08:42:04;1.90;;;1.30;;
20004;SDS011;69160;45.498;-73.582;2023-06-10T08:44:54;1.70;;;1.20;;
20004;SDS011;69160;45.498;-73.582;2023-06-10T08:47:22;1.87;;;1.10;;
20004;SDS011;69160;45.498;-73.582;2023-06-10T08:49:50;1.83;;;1.33;;
20004;SDS011;69160;45.498;-73.582;2023-06-10T08:52:21;1.20;;;1.00;;
20004;SDS011;69160;45.498;-73.582;2023-06-10T08:54:59;1.57;;;1.27;;
20004;SDS011;69160;45.498;-73.582;2023-06-10T08:57:28;1.30;;;1.20;;
20004;SDS011;69160;45.498;-73.582;2023-06-10T08:59:56;1.70;;;1.00;;
20004;SDS011;69160;45.498;-73.582;2023-06-10T09:02:26;1.87;;;0.97;;
20004;SDS011;69160;45.498;-73.582;2023-06-10T09:04:53;1.20;;;1.10;;
20004;SDS011;69160;45.498;-73.582;2023-06-10T09:07:22;2.50;;;1.27;;
20004;SDS011;69160;45.498;-73.582;2023-06-10T09:09:49;1.73;;;1.37;;
20004;SDS011;69160;45.498;-73.582;2023-06-10T09:12:18;1.83;;;1.30;;
20004;SDS011;69160;45.498;-73.582;2023-06-10T09:14:45;1.30;;;1.20;;
20004;SDS011;69160;45.498;-73.582;2023-06-10T09:17:11;2.13;;;1.20;;
20004;SDS011;69160;45.498;-73.582;2023-06-10T09:19:38;2.07;;;1.27;;
20004;SDS011;69160;45.498;-73.582;2023-06-10T09:22:05;2.70;;;1.30;;
20004;SDS011;69160;45.498;-73.582;2023-06-10T09:24:31;1.80;;;1.40;;
20004;SDS011;69160;45.498;-73.582;2023-06-10T09:27:02;2.70;;;1.70;;
20004;SDS011;69160;45.498;-73.582;2023-06-10T09:29:29;1.77;;;1.43;;
20004;SDS011;69160;45.498;-73.582;2023-06-10T09:31:55;1.70;;;1.30;;
20004;SDS011;69160;45.498;-73.582;2023-06-10T09:34:24;1.37;;;1.10;;
20004;SDS011;69160;45.498;-73.582;2023-06-10T09:36:51;2.03;;;1.30;;
20004;SDS011;69160;45.498;-73.582;2023-06-10T09:39:18;3.53;;;1.40;;
20004;SDS011;69160;45.498;-73.582;2023-06-10T09:41:45;3.40;;;1.40;;
20004;SDS011;69160;45.498;-73.582;2023-06-10T09:44:18;1.37;;;1.27;;
20004;SDS011;69160;45.498;-73.582;2023-06-10T09:46:46;3.13;;;1.70;;
20004;SDS011;69160;45.498;-73.582;2023-06-10T09:49:15;1.30;;;1.20;;
20004;SDS011;69160;45.498;-73.582;2023-06-10T09:51:49;2.00;;;1.63;;
20004;SDS011;69160;45.498;-73.582;2023-06-10T09:54:17;3.33;;;1.40;;
20004;SDS011;69160;45.498;-73.582;2023-06-10T09:56:43;1.80;;;1.30;;
20004;SDS011;69160;45.498;-73.582;2023-06-10T09:59:13;1.17;;;1.07;;
20004;SDS011;69160;45.498;-73.582;2023-06-10T10:01:40;1.90;;;1.20;;
20004;SDS011;69160;45.498;-73.582;2023-06-10T10:04:06;1.57;;;1.10;;
20004;SDS011;69160;45.498;-73.582;2023-06-10T10:06:32;1.20;;;1.10;;
20004;SDS011;69160;45.498;-73.582;2023-06-10T10:09:00;1.60;;;1.47;;
20004;SDS011;69160;45.498;-73.582;2023-06-10T10:11:28;2.73;;;1.70;;
20004;SDS011;69160;45.498;-73.582;2023-06-10T10:13:57;1.20;;;1.10;;
20004;SDS011;69160;45.498;-73.582;2023-06-10T10:16:28;1.67;;;1.40;;
20004;SDS011;69160;45.498;-73.582;2023-06-10T10:19:04;1.20;;;1.10;;
20004;SDS011;69160;45.498;-73.582;2023-06-10T10:21:34;1.40;;;1.23;;
20004;SDS011;69160;45.498;-73.582;2023-06-10T10:24:33;1.60;;;1.27;;
20004;SDS011;69160;45.498;-73.582;2023-06-10T10:27:02;2.90;;;1.40;;
20004;SDS011;69160;45.498;-73.582;2023-06-10T10:29:39;1.70;;;1.40;;
20004;SDS011;69160;45.498;-73.582;2023-06-10T10:32:06;2.90;;;1.40;;
20004;SDS011;69160;45.498;-73.582;2023-06-10T10:34:39;2.73;;;1.60;;
20004;SDS011;69160;45.498;-73.582;2023-06-10T10:37:15;1.63;;;1.37;;
20004;SDS011;69160;45.498;-73.582;2023-06-10T10:39:44;1.60;;;1.50;;
20004;SDS011;69160;45.498;-73.582;2023-06-10T10:42:10;3.57;;;1.70;;
20004;SDS011;69160;45.498;-73.582;2023-06-10T10:44:40;2.20;;;1.67;;
20004;SDS011;69160;45.498;-73.582;2023-06-10T10:47:07;1.43;;;1.17;;
20004;SDS011;69160;45.498;-73.582;2023-06-10T10:49:35;1.60;;;1.30;;
20004;SDS011;69160;45.498;-73.582;2023-06-10T10:52:02;2.63;;;1.70;;
20004;SDS011;69160;45.498;-73.582;2023-06-10T10:54:32;2.13;;;1.50;;
20004;SDS011;69160;45.498;-73.582;2023-06-10T10:57:17;5.20;;;1.43;;
20004;SDS011;69160;45.498;-73.582;2023-06-10T10:59:44;1.50;;;1.40;;
20004;SDS011;69160;45.498;-73.582;2023-06-10T11:02:17;3.13;;;1.30;;
20004;SDS011;69160;45.498;-73.582;2023-06-10T11:05:06;5.93;;;1.70;;
20004;SDS011;69160;45.498;-73.582;2023-06-10T11:07:33;5.10;;;1.47;;
20004;SDS011;69160;45.498;-73.582;2023-06-10T11:10:02;16.33;;;1.80;;
20004;SDS011;69160;45.498;-73.582;2023-06-10T11:15:12;7.50;;;1.90;;
20004;SDS011;69160;45.498;-73.582;2023-06-10T11:20:45;1.97;;;1.50;;
20004;SDS011;69160;45.498;-73.582;2023-06-10T11:28:39;4.40;;;1.30;;
20004;SDS011;69160;45.498;-73.582;2023-06-10T11:31:05;7.30;;;1.63;;
20004;SDS011;69160;45.498;-73.582;2023-06-10T11:33:31;3.30;;;1.67;;
20004;SDS011;69160;45.498;-73.582;2023-06-10T11:35:58;5.53;;;1.80;;
20004;SDS011;69160;45.498;-73.582;2023-06-10T11:38:25;2.67;;;1.80;;
20004;SDS011;69160;45.498;-73.582;2023-06-10T11:40:53;2.10;;;1.80;;
20004;SDS011;69160;45.498;-73.582;2023-06-10T11:43:21;4.93;;;1.90;;
20004;SDS011;69160;45.498;-73.582;2023-06-10T11:45:47;3.00;;;1.70;;
20004;SDS011;69160;45.498;-73.582;2023-06-10T11:48:20;5.10;;;1.53;;
20004;SDS011;69160;45.498;-73.582;2023-06-10T11:50:46;5.13;;;2.07;;
20004;SDS011;69160;45.498;-73.582;2023-06-10T11:53:13;2.40;;;1.87;;
20004;SDS011;69160;45.498;-73.582;2023-06-10T11:55:43;3.23;;;1.57;;
20004;SDS011;69160;45.498;-73.582;2023-06-10T12:00:53;2.90;;;1.80;;
20004;SDS011;69160;45.498;-73.582;2023-06-10T12:03:23;2.63;;;1.83;;
20004;SDS011;69160;45.498;-73.582;2023-06-10T12:08:24;4.63;;;2.10;;
20004;SDS011;69160;45.498;-73.582;2023-06-10T12:10:50;2.30;;;1.70;;
20004;SDS011;69160;45.498;-73.582;2023-06-10T12:13:20;3.20;;;1.53;;
20004;SDS011;69160;45.498;-73.582;2023-06-10T12:15:46;3.37;;;2.00;;
20004;SDS011;69160;45.498;-73.582;2023-06-10T12:18:19;4.03;;;1.80;;
20004;SDS011;69160;45.498;-73.582;2023-06-10T12:20:46;5.73;;;2.00;;
20004;SDS011;69160;45.498;-73.582;2023-06-10T12:23:14;9.93;;;1.63;;
20004;SDS011;69160;45.498;-73.582;2023-06-10T12:25:50;3.20;;;1.90;;
20004;SDS011;69160;45.498;-73.582;2023-06-10T12:28:23;2.33;;;1.67;;
20004;SDS011;69160;45.498;-73.582;2023-06-10T12:30:50;15.43;;;2.20;;
20004;SDS011;69160;45.498;-73.582;2023-06-10T12:33:17;9.20;;;2.27;;
20004;SDS011;69160;45.498;-73.582;2023-06-10T12:35:47;54.40;;;22.03;;
20004;SDS011;69160;45.498;-73.582;2023-06-10T12:38:18;46.73;;;13.20;;
20004;SDS011;69160;45.498;-73.582;2023-06-10T12:40:52;41.83;;;9.40;;
20004;SDS011;69160;45.498;-73.582;2023-06-10T12:43:22;24.93;;;7.60;;
20004;SDS011;69160;45.498;-73.582;2023-06-10T12:45:49;16.20;;;5.13;;
20004;SDS011;69160;45.498;-73.582;2023-06-10T12:48:19;6.10;;;3.30;;
20004;SDS011;69160;45.498;-73.582;2023-06-10T12:50:53;10.63;;;3.40;;
20004;SDS011;69160;45.498;-73.582;2023-06-10T12:53:21;10.20;;;3.30;;
20004;SDS011;69160;45.498;-73.582;2023-06-10T12:55:54;14.50;;;3.20;;
20004;SDS011;69160;45.498;-73.582;2023-06-10T12:58:20;10.40;;;3.23;;
20004;SDS011;69160;45.498;-73.582;2023-06-10T13:00:47;16.93;;;3.90;;
20004;SDS011;69160;45.498;-73.582;2023-06-10T13:03:14;10.43;;;2.80;;
20004;SDS011;69160;45.498;-73.582;2023-06-10T13:05:40;17.27;;;3.70;;
20004;SDS011;69160;45.498;-73.582;2023-06-10T13:08:07;11.97;;;3.30;;
20004;SDS011;69160;45.498;-73.582;2023-06-10T13:10:37;8.87;;;3.23;;
20004;SDS011;69160;45.498;-73.582;2023-06-10T13:13:03;8.83;;;2.90;;
20004;SDS011;69160;45.498;-73.582;2023-06-10T13:15:32;6.67;;;3.07;;
20004;SDS011;69160;45.498;-73.582;2023-06-10T13:18:02;12.93;;;2.93;;
20004;SDS011;69160;45.498;-73.582;2023-06-10T13:20:30;9.63;;;2.97;;
20004;SDS011;69160;45.498;-73.582;2023-06-10T13:22:56;9.40;;;2.73;;
20004;SDS011;69160;45.498;-73.582;2023-06-10T13:25:22;7.50;;;2.90;;
20004;SDS011;69160;45.498;-73.582;2023-06-10T13:27:49;2.73;;;2.30;;
20004;SDS011;69160;45.498;-73.582;2023-06-10T13:30:15;6.50;;;2.50;;
20004;SDS011;69160;45.498;-73.582;2023-06-10T13:32:41;4.10;;;2.40;;
20004;SDS011;69160;45.498;-73.582;2023-06-10T13:35:07;4.93;;;2.30;;
20004;SDS011;69160;45.498;-73.582;2023-06-10T13:37:34;2.60;;;2.00;;
20004;SDS011;69160;45.498;-73.582;2023-06-10T13:40:02;9.13;;;2.50;;
20004;SDS011;69160;45.498;-73.582;2023-06-10T13:42:28;4.20;;;1.93;;
20004;SDS011;69160;45.498;-73.582;2023-06-10T13:44:55;7.27;;;2.10;;
20004;SDS011;69160;45.498;-73.582;2023-06-10T13:47:21;6.23;;;2.17;;
20004;SDS011;69160;45.498;-73.582;2023-06-10T13:49:48;6.13;;;2.13;;
20004;SDS011;69160;45.498;-73.582;2023-06-10T13:52:14;2.80;;;1.83;;
20004;SDS011;69160;45.498;-73.582;2023-06-10T13:54:40;3.67;;;2.13;;
20004;SDS011;69160;45.498;-73.582;2023-06-10T13:57:06;3.63;;;1.83;;
20004;SDS011;69160;45.498;-73.582;2023-06-10T13:59:32;2.50;;;2.13;;
20004;SDS011;69160;45.498;-73.582;2023-06-10T14:01:58;5.10;;;1.90;;
20004;SDS011;69160;45.498;-73.582;2023-06-10T14:04:25;4.40;;;2.13;;
20004;SDS011;69160;45.498;-73.582;2023-06-10T14:06:51;3.90;;;2.03;;
20004;SDS011;69160;45.498;-73.582;2023-06-10T14:09:17;3.50;;;1.90;;
20004;SDS011;69160;45.498;-73.582;2023-06-10T14:11:44;2.20;;;1.97;;
20004;SDS011;69160;45.498;-73.582;2023-06-10T14:14:10;2.63;;;1.80;;
20004;SDS011;69160;45.498;-73.582;2023-06-10T14:16:36;2.77;;;1.90;;
20004;SDS011;69160;45.498;-73.582;2023-06-10T14:19:02;3.30;;;1.80;;
20004;SDS011;69160;45.498;-73.582;2023-06-10T14:21:28;2.97;;;1.90;;
20004;SDS011;69160;45.498;-73.582;2023-06-10T14:23:55;4.67;;;2.27;;
20004;SDS011;69160;45.498;-73.582;2023-06-10T14:26:21;3.20;;;1.80;;
20004;SDS011;69160;45.498;-73.582;2023-06-10T14:28:47;3.53;;;2.07;;
20004;SDS011;69160;45.498;-73.582;2023-06-10T14:31:15;3.33;;;1.63;;
20004;SDS011;69160;45.498;-73.582;2023-06-10T14:33:41;4.60;;;2.07;;
20004;SDS011;69160;45.498;-73.582;2023-06-10T14:36:09;2.07;;;1.73;;
20004;SDS011;69160;45.498;-73.582;2023-06-10T14:38:35;2.97;;;1.93;;
20004;SDS011;69160;45.498;-73.582;2023-06-10T14:41:02;2.40;;;1.83;;